sensor_id;sensor_type;location;lat;lon;timestamp;P1;durP1;ratioP1;P2;durP2;ratioP2
52816;SDS011;38687;43.330;21.924;2023-07-08T00:02:09;7.00;;;4.65;;
52816;SDS011;38687;43.330;21.924;2023-07-08T00:04:36;5.78;;;4.32;;
52816;SDS011;38687;43.330;21.924;2023-07-08T00:07:02;6.18;;;4.38;;
52816;SDS011;38687;43.330;21.924;2023-07-08T00:09:27;6.13;;;4.32;;
52816;SDS011;38687;43.330;21.924;2023-07-08T00:11:53;6.35;;;4.35;;
52816;SDS011;38687;43.330;21.924;2023-07-08T00:14:18;6.13;;;5.10;;
52816;SDS011;38687;43.330;21.924;2023-07-08T00:16:44;7.25;;;4.35;;
52816;SDS011;38687;43.330;21.924;2023-07-08T00:19:10;7.25;;;4.70;;
52816;SDS011;38687;43.330;21.924;2023-07-08T00:21:36;7.28;;;4.53;;
52816;SDS011;38687;43.330;21.924;2023-07-08T00:24:01;5.05;;;4.47;;
52816;SDS011;38687;43.330;21.924;2023-07-08T00:26:28;5.75;;;4.35;;
52816;SDS011;38687;43.330;21.924;2023-07-08T00:28:55;5.57;;;4.18;;
52816;SDS011;38687;43.330;21.924;2023-07-08T00:31:21;7.50;;;4.55;;
52816;SDS011;38687;43.330;21.924;2023-07-08T00:33:53;7.22;;;4.88;;
52816;SDS011;38687;43.330;21.924;2023-07-08T00:36:20;5.68;;;3.92;;
52816;SDS011;38687;43.330;21.924;2023-07-08T00:38:46;4.50;;;3.83;;
52816;SDS011;38687;43.330;21.924;2023-07-08T00:41:12;7.53;;;4.35;;
52816;SDS011;38687;43.330;21.924;2023-07-08T00:43:43;5.35;;;4.32;;
52816;SDS011;38687;43.330;21.924;2023-07-08T00:46:19;5.45;;;4.53;;
52816;SDS011;38687;43.330;21.924;2023-07-08T00:49:03;6.95;;;4.60;;
52816;SDS011;38687;43.330;21.924;2023-07-08T00:51:37;5.82;;;4.65;;
52816;SDS011;38687;43.330;21.924;2023-07-08T00:54:04;7.78;;;4.25;;
52816;SDS011;38687;43.330;21.924;2023-07-08T00:56:50;6.10;;;4.18;;
52816;SDS011;38687;43.330;21.924;2023-07-08T00:59:23;6.65;;;4.45;;
52816;SDS011;38687;43.330;21.924;2023-07-08T01:01:52;5.60;;;4.32;;
52816;SDS011;38687;43.330;21.924;2023-07-08T01:04:27;6.63;;;4.65;;
52816;SDS011;38687;43.330;21.924;2023-07-08T01:06:55;6.80;;;4.85;;
52816;SDS011;38687;43.330;21.924;2023-07-08T01:09:31;5.05;;;4.45;;
52816;SDS011;38687;43.330;21.924;2023-07-08T01:12:02;5.53;;;4.40;;
52816;SDS011;38687;43.330;21.924;2023-07-08T01:14:30;6.25;;;4.00;;
52816;SDS011;38687;43.330;21.924;2023-07-08T01:16:57;7.38;;;4.30;;
52816;SDS011;38687;43.330;21.924;2023-07-08T01:19:23;8.15;;;4.82;;
52816;SDS011;38687;43.330;21.924;2023-07-08T01:22:03;9.75;;;4.72;;
52816;SDS011;38687;43.330;21.924;2023-07-08T01:24:30;8.10;;;4.57;;
52816;SDS011;38687;43.330;21.924;2023-07-08T01:26:56;7.82;;;4.57;;
52816;SDS011;38687;43.330;21.924;2023-07-08T01:29:22;6.07;;;4.13;;
52816;SDS011;38687;43.330;21.924;2023-07-08T01:31:48;6.75;;;5.00;;
52816;SDS011;38687;43.330;21.924;2023-07-08T01:34:16;6.43;;;4.05;;
52816;SDS011;38687;43.330;21.924;2023-07-08T01:36:53;5.88;;;4.32;;
52816;SDS011;38687;43.330;21.924;2023-07-08T01:39:21;7.38;;;4.30;;
52816;SDS011;38687;43.330;21.924;2023-07-08T01:41:47;4.70;;;4.30;;
52816;SDS011;38687;43.330;21.924;2023-07-08T01:47:11;6.82;;;4.97;;
52816;SDS011;38687;43.330;21.924;2023-07-08T01:49:48;5.60;;;3.97;;
52816;SDS011;38687;43.330;21.924;2023-07-08T01:52:14;7.28;;;4.55;;
52816;SDS011;38687;43.330;21.924;2023-07-08T01:54:43;7.22;;;4.70;;
52816;SDS011;38687;43.330;21.924;2023-07-08T01:57:09;5.47;;;4.28;;
52816;SDS011;38687;43.330;21.924;2023-07-08T01:59:34;6.50;;;4.55;;
52816;SDS011;38687;43.330;21.924;2023-07-08T02:02:00;5.70;;;4.28;;
52816;SDS011;38687;43.330;21.924;2023-07-08T02:04:26;5.60;;;4.63;;
52816;SDS011;38687;43.330;21.924;2023-07-08T02:06:54;6.97;;;4.75;;
52816;SDS011;38687;43.330;21.924;2023-07-08T02:09:20;6.68;;;4.63;;
52816;SDS011;38687;43.330;21.924;2023-07-08T02:11:46;7.28;;;4.45;;
52816;SDS011;38687;43.330;21.924;2023-07-08T02:14:11;7.20;;;4.35;;
52816;SDS011;38687;43.330;21.924;2023-07-08T02:16:37;9.18;;;4.80;;
52816;SDS011;38687;43.330;21.924;2023-07-08T02:19:02;6.15;;;4.78;;
52816;SDS011;38687;43.330;21.924;2023-07-08T02:21:28;7.55;;;4.47;;
52816;SDS011;38687;43.330;21.924;2023-07-08T02:23:56;8.07;;;4.70;;
52816;SDS011;38687;43.330;21.924;2023-07-08T02:26:22;5.13;;;4.25;;
52816;SDS011;38687;43.330;21.924;2023-07-08T02:28:47;6.68;;;4.78;;
52816;SDS011;38687;43.330;21.924;2023-07-08T02:31:13;6.03;;;4.25;;
52816;SDS011;38687;43.330;21.924;2023-07-08T02:33:38;6.60;;;4.35;;
52816;SDS011;38687;43.330;21.924;2023-07-08T02:36:04;8.57;;;4.78;;
52816;SDS011;38687;43.330;21.924;2023-07-08T02:38:29;5.93;;;4.30;;
52816;SDS011;38687;43.330;21.924;2023-07-08T02:40:55;6.03;;;4.30;;
52816;SDS011;38687;43.330;21.924;2023-07-08T02:43:21;7.68;;;4.70;;
52816;SDS011;38687;43.330;21.924;2023-07-08T02:45:48;5.35;;;4.15;;
52816;SDS011;38687;43.330;21.924;2023-07-08T02:48:17;5.15;;;4.38;;
52816;SDS011;38687;43.330;21.924;2023-07-08T02:50:44;8.43;;;4.70;;
52816;SDS011;38687;43.330;21.924;2023-07-08T02:53:09;6.60;;;4.53;;
52816;SDS011;38687;43.330;21.924;2023-07-08T02:55:34;6.22;;;3.92;;
52816;SDS011;38687;43.330;21.924;2023-07-08T02:58:00;5.95;;;4.18;;
52816;SDS011;38687;43.330;21.924;2023-07-08T03:00:25;6.80;;;4.57;;
52816;SDS011;38687;43.330;21.924;2023-07-08T03:02:51;7.72;;;4.75;;
52816;SDS011;38687;43.330;21.924;2023-07-08T03:05:16;4.90;;;3.80;;
52816;SDS011;38687;43.330;21.924;2023-07-08T03:07:42;6.10;;;4.25;;
52816;SDS011;38687;43.330;21.924;2023-07-08T03:10:08;7.00;;;3.97;;
52816;SDS011;38687;43.330;21.924;2023-07-08T03:12:33;6.55;;;4.38;;
52816;SDS011;38687;43.330;21.924;2023-07-08T03:14:59;9.43;;;4.43;;
52816;SDS011;38687;43.330;21.924;2023-07-08T03:17:24;5.63;;;4.22;;
52816;SDS011;38687;43.330;21.924;2023-07-08T03:19:50;9.07;;;4.90;;
52816;SDS011;38687;43.330;21.924;2023-07-08T03:22:15;7.55;;;3.85;;
52816;SDS011;38687;43.330;21.924;2023-07-08T03:24:41;4.90;;;4.40;;
52816;SDS011;38687;43.330;21.924;2023-07-08T03:27:12;6.50;;;4.53;;
52816;SDS011;38687;43.330;21.924;2023-07-08T03:29:38;6.30;;;4.25;;
52816;SDS011;38687;43.330;21.924;2023-07-08T03:32:10;6.65;;;4.55;;
52816;SDS011;38687;43.330;21.924;2023-07-08T03:34:37;5.18;;;4.63;;
52816;SDS011;38687;43.330;21.924;2023-07-08T03:37:02;6.68;;;4.43;;
52816;SDS011;38687;43.330;21.924;2023-07-08T03:39:28;6.18;;;4.43;;
52816;SDS011;38687;43.330;21.924;2023-07-08T03:41:54;5.97;;;4.60;;
52816;SDS011;38687;43.330;21.924;2023-07-08T03:44:19;6.10;;;3.97;;
52816;SDS011;38687;43.330;21.924;2023-07-08T03:46:47;6.82;;;4.25;;
52816;SDS011;38687;43.330;21.924;2023-07-08T03:49:15;5.40;;;4.10;;
52816;SDS011;38687;43.330;21.924;2023-07-08T03:51:41;6.45;;;4.68;;
52816;SDS011;38687;43.330;21.924;2023-07-08T03:54:08;5.68;;;3.90;;
52816;SDS011;38687;43.330;21.924;2023-07-08T03:56:37;6.68;;;3.95;;
52816;SDS011;38687;43.330;21.924;2023-07-08T03:59:02;6.05;;;4.07;;
52816;SDS011;38687;43.330;21.924;2023-07-08T04:01:29;6.38;;;4.05;;
52816;SDS011;38687;43.330;21.924;2023-07-08T04:03:55;8.63;;;4.57;;
52816;SDS011;38687;43.330;21.924;2023-07-08T04:06:21;4.75;;;3.67;;
52816;SDS011;38687;43.330;21.924;2023-07-08T04:08:48;6.88;;;4.93;;
52816;SDS011;38687;43.330;21.924;2023-07-08T04:11:14;5.32;;;4.03;;
52816;SDS011;38687;43.330;21.924;2023-07-08T04:13:41;5.20;;;3.92;;
52816;SDS011;38687;43.330;21.924;2023-07-08T04:16:07;7.95;;;4.75;;
52816;SDS011;38687;43.330;21.924;2023-07-08T04:18:35;6.00;;;4.32;;
52816;SDS011;38687;43.330;21.924;2023-07-08T04:21:01;6.00;;;4.13;;
52816;SDS011;38687;43.330;21.924;2023-07-08T04:23:27;6.90;;;4.40;;
52816;SDS011;38687;43.330;21.924;2023-07-08T04:25:53;6.25;;;4.28;;
52816;SDS011;38687;43.330;21.924;2023-07-08T04:28:20;8.48;;;3.90;;
52816;SDS011;38687;43.330;21.924;2023-07-08T04:30:46;7.40;;;4.05;;
52816;SDS011;38687;43.330;21.924;2023-07-08T04:33:13;7.28;;;4.20;;
52816;SDS011;38687;43.330;21.924;2023-07-08T04:35:40;5.32;;;3.80;;
52816;SDS011;38687;43.330;21.924;2023-07-08T04:38:13;5.72;;;4.13;;
52816;SDS011;38687;43.330;21.924;2023-07-08T04:40:44;6.65;;;4.18;;
52816;SDS011;38687;43.330;21.924;2023-07-08T04:43:09;6.40;;;4.55;;
52816;SDS011;38687;43.330;21.924;2023-07-08T04:45:38;5.97;;;3.78;;
52816;SDS011;38687;43.330;21.924;2023-07-08T04:48:04;5.45;;;4.13;;
52816;SDS011;38687;43.330;21.924;2023-07-08T04:50:41;5.70;;;4.20;;
52816;SDS011;38687;43.330;21.924;2023-07-08T04:53:07;7.20;;;4.15;;
52816;SDS011;38687;43.330;21.924;2023-07-08T04:55:34;6.78;;;4.15;;
52816;SDS011;38687;43.330;21.924;2023-07-08T04:58:00;5.10;;;4.22;;
52816;SDS011;38687;43.330;21.924;2023-07-08T05:00:27;6.22;;;4.15;;
52816;SDS011;38687;43.330;21.924;2023-07-08T05:02:52;5.55;;;4.15;;
52816;SDS011;38687;43.330;21.924;2023-07-08T05:05:19;8.00;;;3.95;;
52816;SDS011;38687;43.330;21.924;2023-07-08T05:07:46;7.70;;;4.00;;
52816;SDS011;38687;43.330;21.924;2023-07-08T05:10:14;8.07;;;4.40;;
52816;SDS011;38687;43.330;21.924;2023-07-08T05:12:41;5.90;;;4.03;;
52816;SDS011;38687;43.330;21.924;2023-07-08T05:15:07;6.15;;;4.00;;
52816;SDS011;38687;43.330;21.924;2023-07-08T05:17:32;5.22;;;4.13;;
52816;SDS011;38687;43.330;21.924;2023-07-08T05:19:58;6.47;;;3.75;;
52816;SDS011;38687;43.330;21.924;2023-07-08T05:22:26;5.35;;;4.03;;
52816;SDS011;38687;43.330;21.924;2023-07-08T05:24:52;5.43;;;3.72;;
52816;SDS011;38687;43.330;21.924;2023-07-08T05:27:20;7.07;;;4.03;;
52816;SDS011;38687;43.330;21.924;2023-07-08T05:29:47;6.25;;;3.63;;
52816;SDS011;38687;43.330;21.924;2023-07-08T05:32:13;7.68;;;3.97;;
52816;SDS011;38687;43.330;21.924;2023-07-08T05:34:38;5.47;;;3.90;;
52816;SDS011;38687;43.330;21.924;2023-07-08T05:37:04;5.80;;;3.40;;
52816;SDS011;38687;43.330;21.924;2023-07-08T05:39:30;4.93;;;3.45;;
52816;SDS011;38687;43.330;21.924;2023-07-08T05:41:55;6.90;;;3.50;;
52816;SDS011;38687;43.330;21.924;2023-07-08T05:44:21;8.60;;;3.72;;
52816;SDS011;38687;43.330;21.924;2023-07-08T05:46:49;4.88;;;3.97;;
52816;SDS011;38687;43.330;21.924;2023-07-08T05:49:14;5.43;;;3.90;;
52816;SDS011;38687;43.330;21.924;2023-07-08T05:51:40;4.20;;;3.60;;
52816;SDS011;38687;43.330;21.924;2023-07-08T05:54:05;7.60;;;3.70;;
52816;SDS011;38687;43.330;21.924;2023-07-08T05:56:31;7.20;;;4.43;;
52816;SDS011;38687;43.330;21.924;2023-07-08T05:58:56;5.75;;;4.32;;
52816;SDS011;38687;43.330;21.924;2023-07-08T06:01:22;4.75;;;4.03;;
52816;SDS011;38687;43.330;21.924;2023-07-08T06:03:47;5.38;;;3.95;;
52816;SDS011;38687;43.330;21.924;2023-07-08T06:06:13;4.60;;;4.20;;
52816;SDS011;38687;43.330;21.924;2023-07-08T06:08:38;7.88;;;4.10;;
52816;SDS011;38687;43.330;21.924;2023-07-08T06:11:04;4.40;;;3.70;;
52816;SDS011;38687;43.330;21.924;2023-07-08T06:13:30;5.63;;;3.58;;
52816;SDS011;38687;43.330;21.924;2023-07-08T06:15:55;7.93;;;4.22;;
52816;SDS011;38687;43.330;21.924;2023-07-08T06:18:21;7.35;;;4.30;;
52816;SDS011;38687;43.330;21.924;2023-07-08T06:20:56;6.20;;;4.30;;
52816;SDS011;38687;43.330;21.924;2023-07-08T06:23:22;6.32;;;4.38;;
52816;SDS011;38687;43.330;21.924;2023-07-08T06:25:48;6.38;;;4.43;;
52816;SDS011;38687;43.330;21.924;2023-07-08T06:28:14;5.10;;;4.05;;
52816;SDS011;38687;43.330;21.924;2023-07-08T06:30:39;5.70;;;4.00;;
52816;SDS011;38687;43.330;21.924;2023-07-08T06:33:04;6.28;;;5.03;;
52816;SDS011;38687;43.330;21.924;2023-07-08T06:35:30;8.00;;;4.38;;
52816;SDS011;38687;43.330;21.924;2023-07-08T06:37:56;5.90;;;4.20;;
52816;SDS011;38687;43.330;21.924;2023-07-08T06:40:21;6.45;;;4.63;;
52816;SDS011;38687;43.330;21.924;2023-07-08T06:42:47;7.78;;;4.30;;
52816;SDS011;38687;43.330;21.924;2023-07-08T06:45:12;6.07;;;4.20;;
52816;SDS011;38687;43.330;21.924;2023-07-08T06:47:38;8.48;;;4.47;;
52816;SDS011;38687;43.330;21.924;2023-07-08T06:50:03;7.10;;;4.25;;
52816;SDS011;38687;43.330;21.924;2023-07-08T06:52:29;5.90;;;4.63;;
52816;SDS011;38687;43.330;21.924;2023-07-08T06:55:00;5.95;;;3.97;;
52816;SDS011;38687;43.330;21.924;2023-07-08T06:57:27;8.10;;;4.68;;
52816;SDS011;38687;43.330;21.924;2023-07-08T06:59:52;6.68;;;4.20;;
52816;SDS011;38687;43.330;21.924;2023-07-08T07:02:18;5.95;;;4.50;;
52816;SDS011;38687;43.330;21.924;2023-07-08T07:04:44;5.78;;;3.88;;
52816;SDS011;38687;43.330;21.924;2023-07-08T07:07:10;4.68;;;3.95;;
52816;SDS011;38687;43.330;21.924;2023-07-08T07:09:36;7.20;;;4.00;;
52816;SDS011;38687;43.330;21.924;2023-07-08T07:12:01;8.07;;;4.88;;
52816;SDS011;38687;43.330;21.924;2023-07-08T07:14:27;5.55;;;3.90;;
52816;SDS011;38687;43.330;21.924;2023-07-08T07:16:54;6.97;;;4.30;;
52816;SDS011;38687;43.330;21.924;2023-07-08T07:19:19;4.13;;;3.63;;
52816;SDS011;38687;43.330;21.924;2023-07-08T07:21:46;5.53;;;3.70;;
52816;SDS011;38687;43.330;21.924;2023-07-08T07:24:12;6.90;;;3.97;;
52816;SDS011;38687;43.330;21.924;2023-07-08T07:26:38;4.45;;;3.90;;
52816;SDS011;38687;43.330;21.924;2023-07-08T07:29:03;5.28;;;3.90;;
52816;SDS011;38687;43.330;21.924;2023-07-08T07:31:29;5.32;;;3.75;;
52816;SDS011;38687;43.330;21.924;2023-07-08T07:33:54;4.47;;;3.42;;
52816;SDS011;38687;43.330;21.924;2023-07-08T07:36:21;7.32;;;3.58;;
52816;SDS011;38687;43.330;21.924;2023-07-08T07:38:46;5.05;;;3.58;;
52816;SDS011;38687;43.330;21.924;2023-07-08T07:41:12;5.97;;;3.65;;
52816;SDS011;38687;43.330;21.924;2023-07-08T07:43:37;5.82;;;3.72;;
52816;SDS011;38687;43.330;21.924;2023-07-08T07:46:03;8.35;;;4.22;;
52816;SDS011;38687;43.330;21.924;2023-07-08T07:48:30;4.78;;;3.63;;
52816;SDS011;38687;43.330;21.924;2023-07-08T07:50:59;5.63;;;3.72;;
52816;SDS011;38687;43.330;21.924;2023-07-08T07:53:25;5.43;;;3.10;;
52816;SDS011;38687;43.330;21.924;2023-07-08T07:56:00;5.28;;;3.90;;
52816;SDS011;38687;43.330;21.924;2023-07-08T07:58:26;4.70;;;3.22;;
52816;SDS011;38687;43.330;21.924;2023-07-08T08:00:52;4.90;;;3.97;;
52816;SDS011;38687;43.330;21.924;2023-07-08T08:03:17;6.32;;;3.80;;
52816;SDS011;38687;43.330;21.924;2023-07-08T08:05:44;4.05;;;3.05;;
52816;SDS011;38687;43.330;21.924;2023-07-08T08:08:09;6.72;;;3.60;;
52816;SDS011;38687;43.330;21.924;2023-07-08T08:10:42;6.90;;;4.03;;
52816;SDS011;38687;43.330;21.924;2023-07-08T08:13:11;5.55;;;3.95;;
52816;SDS011;38687;43.330;21.924;2023-07-08T08:15:37;6.03;;;3.25;;
52816;SDS011;38687;43.330;21.924;2023-07-08T08:18:02;5.63;;;3.60;;
52816;SDS011;38687;43.330;21.924;2023-07-08T08:20:28;7.50;;;3.95;;
52816;SDS011;38687;43.330;21.924;2023-07-08T08:22:54;5.25;;;3.33;;
52816;SDS011;38687;43.330;21.924;2023-07-08T08:25:21;4.55;;;3.50;;
52816;SDS011;38687;43.330;21.924;2023-07-08T08:27:48;4.95;;;3.47;;
52816;SDS011;38687;43.330;21.924;2023-07-08T08:30:14;4.15;;;3.67;;
52816;SDS011;38687;43.330;21.924;2023-07-08T08:32:39;6.82;;;3.53;;
52816;SDS011;38687;43.330;21.924;2023-07-08T08:35:08;5.47;;;3.80;;
52816;SDS011;38687;43.330;21.924;2023-07-08T08:37:39;5.07;;;3.85;;
52816;SDS011;38687;43.330;21.924;2023-07-08T08:40:05;3.78;;;3.22;;
52816;SDS011;38687;43.330;21.924;2023-07-08T08:42:34;5.35;;;3.58;;
52816;SDS011;38687;43.330;21.924;2023-07-08T08:45:09;7.10;;;4.03;;
52816;SDS011;38687;43.330;21.924;2023-07-08T08:47:37;5.25;;;3.58;;
52816;SDS011;38687;43.330;21.924;2023-07-08T08:50:11;5.32;;;3.20;;
52816;SDS011;38687;43.330;21.924;2023-07-08T08:53:02;4.72;;;3.40;;
52816;SDS011;38687;43.330;21.924;2023-07-08T08:55:29;3.65;;;3.35;;
52816;SDS011;38687;43.330;21.924;2023-07-08T09:00:43;3.72;;;3.28;;
52816;SDS011;38687;43.330;21.924;2023-07-08T09:03:19;7.03;;;3.30;;
52816;SDS011;38687;43.330;21.924;2023-07-08T09:05:55;4.90;;;3.45;;
52816;SDS011;38687;43.330;21.924;2023-07-08T09:08:24;4.38;;;3.30;;
52816;SDS011;38687;43.330;21.924;2023-07-08T09:11:00;6.53;;;3.17;;
52816;SDS011;38687;43.330;21.924;2023-07-08T09:13:32;4.47;;;3.40;;
52816;SDS011;38687;43.330;21.924;2023-07-08T09:18:54;7.60;;;3.25;;
52816;SDS011;38687;43.330;21.924;2023-07-08T09:21:50;5.03;;;3.03;;
52816;SDS011;38687;43.330;21.924;2023-07-08T09:24:22;4.20;;;2.97;;
52816;SDS011;38687;43.330;21.924;2023-07-08T09:27:05;8.35;;;3.22;;
52816;SDS011;38687;43.330;21.924;2023-07-08T09:29:34;5.38;;;2.92;;
52816;SDS011;38687;43.330;21.924;2023-07-08T09:32:19;6.50;;;3.10;;
52816;SDS011;38687;43.330;21.924;2023-07-08T09:34:52;4.28;;;3.47;;
52816;SDS011;38687;43.330;21.924;2023-07-08T09:39:49;5.20;;;3.30;;
52816;SDS011;38687;43.330;21.924;2023-07-08T09:42:16;4.40;;;2.78;;
52816;SDS011;38687;43.330;21.924;2023-07-08T09:44:43;3.67;;;2.83;;
52816;SDS011;38687;43.330;21.924;2023-07-08T09:47:23;5.38;;;2.78;;
52816;SDS011;38687;43.330;21.924;2023-07-08T09:49:58;3.15;;;2.50;;
52816;SDS011;38687;43.330;21.924;2023-07-08T09:52:24;4.53;;;2.78;;
52816;SDS011;38687;43.330;21.924;2023-07-08T09:54:50;3.97;;;2.78;;
52816;SDS011;38687;43.330;21.924;2023-07-08T09:59:52;5.60;;;2.63;;
52816;SDS011;38687;43.330;21.924;2023-07-08T10:04:55;5.25;;;3.25;;
52816;SDS011;38687;43.330;21.924;2023-07-08T10:07:22;3.95;;;2.85;;
52816;SDS011;38687;43.330;21.924;2023-07-08T10:09:48;4.18;;;3.33;;
52816;SDS011;38687;43.330;21.924;2023-07-08T10:12:16;3.40;;;2.85;;
52816;SDS011;38687;43.330;21.924;2023-07-08T10:14:49;3.95;;;2.58;;
52816;SDS011;38687;43.330;21.924;2023-07-08T10:24:48;3.78;;;2.58;;
52816;SDS011;38687;43.330;21.924;2023-07-08T10:27:22;4.10;;;2.53;;
52816;SDS011;38687;43.330;21.924;2023-07-08T10:29:54;3.67;;;2.60;;
52816;SDS011;38687;43.330;21.924;2023-07-08T10:35:18;6.70;;;3.03;;
52816;SDS011;38687;43.330;21.924;2023-07-08T10:43:30;2.65;;;2.45;;
52816;SDS011;38687;43.330;21.924;2023-07-08T10:51:19;3.03;;;2.70;;
52816;SDS011;38687;43.330;21.924;2023-07-08T10:56:59;5.15;;;2.83;;
52816;SDS011;38687;43.330;21.924;2023-07-08T11:08:01;5.75;;;2.75;;
52816;SDS011;38687;43.330;21.924;2023-07-08T11:10:51;4.43;;;2.70;;
52816;SDS011;38687;43.330;21.924;2023-07-08T11:13:20;4.75;;;2.75;;
52816;SDS011;38687;43.330;21.924;2023-07-08T11:19:19;4.22;;;2.80;;
52816;SDS011;38687;43.330;21.924;2023-07-08T11:21:47;4.20;;;2.90;;
52816;SDS011;38687;43.330;21.924;2023-07-08T11:24:21;7.60;;;2.60;;
52816;SDS011;38687;43.330;21.924;2023-07-08T11:26:58;4.80;;;2.65;;
52816;SDS011;38687;43.330;21.924;2023-07-08T11:29:48;5.00;;;2.60;;
52816;SDS011;38687;43.330;21.924;2023-07-08T11:32:17;4.47;;;2.38;;
52816;SDS011;38687;43.330;21.924;2023-07-08T11:34:46;3.13;;;2.80;;
52816;SDS011;38687;43.330;21.924;2023-07-08T11:37:14;2.88;;;2.45;;
52816;SDS011;38687;43.330;21.924;2023-07-08T11:39:46;3.00;;;2.55;;
52816;SDS011;38687;43.330;21.924;2023-07-08T11:42:23;5.13;;;2.75;;
52816;SDS011;38687;43.330;21.924;2023-07-08T11:44:59;4.75;;;2.80;;
52816;SDS011;38687;43.330;21.924;2023-07-08T11:47:29;3.83;;;2.47;;
52816;SDS011;38687;43.330;21.924;2023-07-08T11:50:14;4.57;;;2.80;;
52816;SDS011;38687;43.330;21.924;2023-07-08T11:53:30;4.28;;;2.65;;
52816;SDS011;38687;43.330;21.924;2023-07-08T11:58:22;4.65;;;2.65;;
52816;SDS011;38687;43.330;21.924;2023-07-08T12:03:47;5.15;;;2.78;;
52816;SDS011;38687;43.330;21.924;2023-07-08T12:08:59;2.90;;;2.60;;
52816;SDS011;38687;43.330;21.924;2023-07-08T12:11:32;4.15;;;2.85;;
52816;SDS011;38687;43.330;21.924;2023-07-08T12:14:00;3.15;;;2.20;;
52816;SDS011;38687;43.330;21.924;2023-07-08T12:16:29;5.10;;;2.80;;
52816;SDS011;38687;43.330;21.924;2023-07-08T12:18:55;3.42;;;2.75;;
52816;SDS011;38687;43.330;21.924;2023-07-08T12:21:23;5.60;;;3.38;;
52816;SDS011;38687;43.330;21.924;2023-07-08T12:23:51;3.42;;;2.53;;
52816;SDS011;38687;43.330;21.924;2023-07-08T12:26:17;6.85;;;2.85;;
52816;SDS011;38687;43.330;21.924;2023-07-08T12:28:43;4.22;;;2.65;;
52816;SDS011;38687;43.330;21.924;2023-07-08T12:31:16;3.67;;;2.33;;
52816;SDS011;38687;43.330;21.924;2023-07-08T12:33:43;4.05;;;2.15;;
52816;SDS011;38687;43.330;21.924;2023-07-08T12:36:20;4.88;;;2.60;;
52816;SDS011;38687;43.330;21.924;2023-07-08T12:38:50;3.25;;;2.58;;
52816;SDS011;38687;43.330;21.924;2023-07-08T12:41:32;6.07;;;2.88;;
52816;SDS011;38687;43.330;21.924;2023-07-08T12:43:59;4.80;;;2.85;;
52816;SDS011;38687;43.330;21.924;2023-07-08T12:46:28;5.85;;;2.70;;
52816;SDS011;38687;43.330;21.924;2023-07-08T12:48:54;5.53;;;2.38;;
52816;SDS011;38687;43.330;21.924;2023-07-08T12:51:20;3.83;;;2.67;;
52816;SDS011;38687;43.330;21.924;2023-07-08T12:53:48;2.95;;;2.38;;
52816;SDS011;38687;43.330;21.924;2023-07-08T12:56:14;3.25;;;2.33;;
52816;SDS011;38687;43.330;21.924;2023-07-08T12:58:41;4.95;;;2.45;;
52816;SDS011;38687;43.330;21.924;2023-07-08T13:01:19;2.95;;;2.28;;
52816;SDS011;38687;43.330;21.924;2023-07-08T13:03:47;3.03;;;2.40;;
52816;SDS011;38687;43.330;21.924;2023-07-08T13:06:15;3.25;;;2.42;;
52816;SDS011;38687;43.330;21.924;2023-07-08T13:08:42;2.83;;;2.15;;
52816;SDS011;38687;43.330;21.924;2023-07-08T13:11:07;4.95;;;2.25;;
52816;SDS011;38687;43.330;21.924;2023-07-08T13:13:47;4.18;;;2.50;;
52816;SDS011;38687;43.330;21.924;2023-07-08T13:16:23;3.70;;;2.50;;
52816;SDS011;38687;43.330;21.924;2023-07-08T13:18:55;4.82;;;2.65;;
52816;SDS011;38687;43.330;21.924;2023-07-08T13:21:20;3.53;;;2.35;;
52816;SDS011;38687;43.330;21.924;2023-07-08T13:23:55;4.05;;;2.83;;
52816;SDS011;38687;43.330;21.924;2023-07-08T13:26:22;4.00;;;2.53;;
52816;SDS011;38687;43.330;21.924;2023-07-08T13:28:48;3.95;;;2.58;;
52816;SDS011;38687;43.330;21.924;2023-07-08T13:31:21;4.65;;;2.08;;
52816;SDS011;38687;43.330;21.924;2023-07-08T13:33:54;2.95;;;2.60;;
52816;SDS011;38687;43.330;21.924;2023-07-08T13:36:24;3.58;;;2.55;;
52816;SDS011;38687;43.330;21.924;2023-07-08T13:39:07;2.83;;;2.50;;
52816;SDS011;38687;43.330;21.924;2023-07-08T13:41:37;2.88;;;2.58;;
52816;SDS011;38687;43.330;21.924;2023-07-08T13:44:08;3.70;;;2.65;;
52816;SDS011;38687;43.330;21.924;2023-07-08T13:46:35;4.35;;;2.38;;
52816;SDS011;38687;43.330;21.924;2023-07-08T13:51:45;4.60;;;2.70;;
52816;SDS011;38687;43.330;21.924;2023-07-08T13:54:14;3.17;;;2.53;;
52816;SDS011;38687;43.330;21.924;2023-07-08T13:56:41;4.15;;;2.30;;
52816;SDS011;38687;43.330;21.924;2023-07-08T13:59:09;3.20;;;2.25;;
52816;SDS011;38687;43.330;21.924;2023-07-08T14:01:40;3.97;;;2.60;;
52816;SDS011;38687;43.330;21.924;2023-07-08T14:04:07;4.07;;;2.50;;
52816;SDS011;38687;43.330;21.924;2023-07-08T14:06:34;2.53;;;2.30;;
52816;SDS011;38687;43.330;21.924;2023-07-08T14:09:12;4.47;;;2.33;;
52816;SDS011;38687;43.330;21.924;2023-07-08T14:11:46;4.55;;;2.58;;
52816;SDS011;38687;43.330;21.924;2023-07-08T14:14:12;4.18;;;2.40;;
52816;SDS011;38687;43.330;21.924;2023-07-08T14:16:45;3.65;;;2.22;;
52816;SDS011;38687;43.330;21.924;2023-07-08T14:19:24;3.20;;;2.15;;
52816;SDS011;38687;43.330;21.924;2023-07-08T14:21:54;3.97;;;2.50;;
52816;SDS011;38687;43.330;21.924;2023-07-08T14:24:21;2.47;;;2.00;;
52816;SDS011;38687;43.330;21.924;2023-07-08T14:26:47;4.15;;;2.25;;
52816;SDS011;38687;43.330;21.924;2023-07-08T14:29:13;2.95;;;2.15;;
52816;SDS011;38687;43.330;21.924;2023-07-08T14:31:38;5.35;;;2.50;;
52816;SDS011;38687;43.330;21.924;2023-07-08T14:34:09;4.05;;;2.70;;
52816;SDS011;38687;43.330;21.924;2023-07-08T14:36:37;3.80;;;2.55;;
52816;SDS011;38687;43.330;21.924;2023-07-08T14:39:16;2.78;;;2.13;;
52816;SDS011;38687;43.330;21.924;2023-07-08T14:41:42;2.63;;;2.22;;
52816;SDS011;38687;43.330;21.924;2023-07-08T14:46:51;4.00;;;2.50;;
52816;SDS011;38687;43.330;21.924;2023-07-08T14:49:18;3.05;;;2.35;;
52816;SDS011;38687;43.330;21.924;2023-07-08T14:51:44;5.20;;;2.40;;
52816;SDS011;38687;43.330;21.924;2023-07-08T14:54:10;4.00;;;2.72;;
52816;SDS011;38687;43.330;21.924;2023-07-08T14:56:36;3.83;;;2.30;;
52816;SDS011;38687;43.330;21.924;2023-07-08T14:59:02;4.05;;;2.95;;
52816;SDS011;38687;43.330;21.924;2023-07-08T15:01:27;2.40;;;2.00;;
52816;SDS011;38687;43.330;21.924;2023-07-08T15:03:56;5.53;;;2.67;;
52816;SDS011;38687;43.330;21.924;2023-07-08T15:06:22;3.63;;;2.00;;
52816;SDS011;38687;43.330;21.924;2023-07-08T15:08:48;3.38;;;2.17;;
52816;SDS011;38687;43.330;21.924;2023-07-08T15:11:13;3.20;;;2.20;;
52816;SDS011;38687;43.330;21.924;2023-07-08T15:13:40;3.78;;;2.20;;
52816;SDS011;38687;43.330;21.924;2023-07-08T15:16:10;3.75;;;2.53;;
52816;SDS011;38687;43.330;21.924;2023-07-08T15:18:40;2.58;;;2.20;;
52816;SDS011;38687;43.330;21.924;2023-07-08T15:21:07;3.47;;;2.38;;
52816;SDS011;38687;43.330;21.924;2023-07-08T15:23:36;5.65;;;2.38;;
52816;SDS011;38687;43.330;21.924;2023-07-08T15:26:01;4.10;;;2.25;;
52816;SDS011;38687;43.330;21.924;2023-07-08T15:28:37;4.50;;;1.83;;
52816;SDS011;38687;43.330;21.924;2023-07-08T15:31:12;2.25;;;1.92;;
52816;SDS011;38687;43.330;21.924;2023-07-08T15:33:38;4.57;;;2.78;;
52816;SDS011;38687;43.330;21.924;2023-07-08T15:36:03;2.80;;;2.42;;
52816;SDS011;38687;43.330;21.924;2023-07-08T15:38:29;3.60;;;2.42;;
52816;SDS011;38687;43.330;21.924;2023-07-08T15:40:54;3.65;;;2.30;;
52816;SDS011;38687;43.330;21.924;2023-07-08T15:43:20;5.18;;;2.38;;
52816;SDS011;38687;43.330;21.924;2023-07-08T15:45:45;4.10;;;2.75;;
52816;SDS011;38687;43.330;21.924;2023-07-08T15:48:14;3.90;;;2.10;;